createdAt,value
2023-05-15T00:02:02.232Z,13.65
2023-05-15T00:04:29.401Z,13.78
2023-05-15T00:06:56.474Z,13.77
2023-05-15T00:09:23.491Z,13.77
2023-05-15T00:11:50.639Z,13.78
2023-05-15T00:14:17.625Z,13.58
2023-05-15T00:16:44.754Z,13.67
2023-05-15T00:19:12.083Z,13.64
2023-05-15T00:21:39.418Z,13.18
2023-05-15T00:24:06.605Z,13.33
2023-05-15T00:26:33.615Z,13.06
2023-05-15T00:29:00.715Z,13.38
2023-05-15T00:31:27.768Z,13.19
2023-05-15T00:33:54.822Z,13.30
2023-05-15T00:36:22.229Z,13.11
2023-05-15T00:38:49.288Z,13.12
2023-05-15T00:41:16.309Z,13.01
2023-05-15T00:43:43.314Z,13.07
2023-05-15T00:46:10.984Z,13.22
2023-05-15T00:48:38.224Z,13.01
2023-05-15T00:51:05.622Z,13.23
2023-05-15T00:53:32.832Z,12.90
2023-05-15T00:55:59.936Z,13.14
2023-05-15T00:58:28.215Z,13.26
2023-05-15T01:00:55.252Z,13.23
2023-05-15T01:03:22.407Z,13.07
2023-05-15T01:05:49.405Z,12.52
2023-05-15T01:08:26.679Z,13.12
2023-05-15T01:10:53.747Z,12.93
2023-05-15T01:13:23.214Z,13.12
2023-05-15T01:15:50.518Z,12.91
2023-05-15T01:18:17.696Z,12.93
2023-05-15T01:21:05.942Z,13.14
2023-05-15T01:23:38.776Z,13.15
2023-05-15T01:26:17.912Z,13.13
2023-05-15T01:28:49.031Z,13.11
2023-05-15T01:31:17.162Z,12.87
2023-05-15T01:33:49.915Z,13.01
2023-05-15T01:36:29.255Z,12.94
2023-05-15T01:39:02.550Z,12.94
2023-05-15T01:41:43.162Z,12.63
2023-05-15T01:44:52.309Z,12.80
2023-05-15T01:47:32.445Z,12.44
2023-05-15T01:50:02.016Z,12.69
2023-05-15T01:52:54.081Z,12.68
2023-05-15T01:55:23.376Z,12.50
2023-05-15T01:57:51.813Z,11.56
2023-05-15T02:00:19.632Z,12.71
2023-05-15T02:02:47.259Z,12.72
2023-05-15T02:05:15.383Z,12.36
2023-05-15T02:07:43.334Z,12.52
2023-05-15T02:10:13.709Z,12.78
2023-05-15T02:12:41.995Z,12.36
2023-05-15T02:15:11.335Z,12.72
2023-05-15T02:17:38.686Z,12.36
2023-05-15T02:20:06.692Z,12.67
2023-05-15T02:22:33.685Z,12.43
2023-05-15T02:25:00.734Z,12.40
2023-05-15T02:27:29.182Z,12.60
2023-05-15T02:30:08.243Z,12.58
2023-05-15T02:32:50.896Z,12.56
2023-05-15T02:35:17.817Z,12.54
2023-05-15T02:37:47.072Z,12.29
2023-05-15T02:40:14.230Z,12.53
2023-05-15T02:42:41.508Z,12.36
2023-05-15T02:45:09.674Z,12.46
2023-05-15T02:47:36.914Z,12.52
2023-05-15T02:50:04.231Z,12.39
2023-05-15T02:52:31.454Z,12.42
2023-05-15T02:54:58.442Z,12.38
2023-05-15T02:57:25.579Z,12.23
2023-05-15T02:59:54.037Z,12.12
2023-05-15T03:02:21.068Z,12.40
2023-05-15T03:04:48.144Z,12.43
2023-05-15T03:07:15.297Z,12.28
2023-05-15T03:09:42.325Z,12.33
2023-05-15T03:12:11.244Z,12.17
2023-05-15T03:14:38.326Z,12.38
2023-05-15T03:17:05.568Z,12.15
2023-05-15T03:19:32.666Z,12.23
2023-05-15T03:21:59.749Z,12.09
2023-05-15T03:24:26.824Z,11.90
2023-05-15T03:26:53.914Z,12.04
2023-05-15T03:29:21.035Z,12.27
2023-05-15T03:31:48.384Z,11.87
2023-05-15T03:34:15.568Z,12.03
2023-05-15T03:36:42.675Z,11.99
2023-05-15T03:39:09.813Z,11.67
2023-05-15T03:41:36.895Z,11.76
2023-05-15T03:44:03.986Z,12.05
2023-05-15T05:03:53.306Z,12.40
2023-05-15T05:06:20.396Z,12.47
2023-05-15T05:08:47.496Z,12.39
2023-05-15T05:11:14.640Z,12.59
2023-05-15T05:13:42.690Z,11.41
2023-05-15T05:16:10.032Z,12.73
2023-05-15T05:18:37.650Z,12.75
2023-05-15T05:21:05.096Z,12.24
2023-05-15T05:23:32.353Z,12.60
2023-05-15T05:26:00.796Z,12.53
2023-05-15T05:28:27.916Z,12.86
2023-05-15T05:30:54.914Z,12.69
2023-05-15T05:33:21.937Z,12.90
2023-05-15T05:35:49.150Z,13.01
2023-05-15T05:38:16.263Z,12.98
2023-05-15T05:40:43.263Z,12.84
2023-05-15T05:43:10.249Z,12.67
2023-05-15T05:45:37.268Z,12.99
2023-05-15T05:48:04.336Z,13.07
2023-05-15T05:50:31.626Z,12.87
2023-05-15T05:52:58.649Z,13.06
2023-05-15T05:55:25.945Z,13.14
2023-05-15T05:57:53.351Z,13.16
2023-05-15T06:00:20.611Z,13.25
2023-05-15T06:02:47.987Z,12.98
2023-05-15T06:05:15.782Z,13.05
2023-05-15T06:07:43.311Z,12.83
2023-05-15T06:10:10.765Z,13.06
2023-05-15T06:12:37.823Z,13.25
2023-05-15T06:15:05.225Z,13.25
2023-05-15T06:17:32.246Z,13.00
2023-05-15T06:19:59.274Z,13.48
2023-05-15T06:22:26.328Z,13.22
2023-05-15T06:24:53.411Z,13.18
2023-05-15T06:27:20.429Z,13.48
2023-05-15T06:29:47.493Z,13.43
2023-05-15T06:32:14.508Z,13.54
2023-05-15T06:34:41.516Z,13.56
2023-05-15T06:37:08.677Z,13.53
2023-05-15T06:39:35.693Z,13.67
2023-05-15T06:42:02.826Z,13.42
2023-05-15T06:44:31.007Z,13.63
2023-05-15T06:46:58.942Z,13.60
2023-05-15T06:49:26.752Z,13.86
2023-05-15T06:51:56.389Z,13.78
2023-05-15T06:54:23.667Z,13.54
2023-05-15T06:56:50.936Z,13.97
2023-05-15T06:59:17.997Z,13.64
2023-05-15T07:01:45.515Z,13.93
2023-05-15T07:04:15.593Z,14.10
2023-05-15T07:06:43.340Z,14.01
2023-05-15T07:09:10.496Z,14.06
2023-05-15T07:11:39.042Z,14.16
2023-05-15T07:14:06.990Z,13.83
2023-05-15T07:16:34.033Z,14.23
2023-05-15T07:19:01.209Z,14.20
2023-05-15T07:21:28.263Z,14.50
2023-05-15T07:23:55.296Z,14.66
2023-05-15T07:26:34.253Z,14.88
2023-05-15T07:29:05.660Z,14.79
2023-05-15T07:31:33.771Z,14.92
2023-05-15T07:34:00.924Z,14.78
2023-05-15T07:36:27.982Z,14.97
2023-05-15T07:38:55.038Z,15.03
2023-05-15T07:41:22.149Z,14.87
2023-05-15T07:43:49.194Z,15.21
2023-05-15T07:46:16.356Z,15.45
2023-05-15T07:48:43.562Z,15.55
2023-05-15T07:51:10.752Z,15.25
2023-05-15T07:53:37.913Z,15.74
2023-05-15T07:56:05.243Z,15.27
2023-05-15T07:58:34.219Z,15.55
2023-05-15T08:01:01.577Z,15.73
2023-05-15T08:03:28.806Z,15.86
2023-05-15T08:05:56.105Z,15.92
2023-05-15T08:08:23.405Z,15.87
2023-05-15T08:10:50.474Z,16.10
2023-05-15T08:13:17.618Z,16.06
2023-05-15T08:15:44.776Z,16.13
2023-05-15T08:18:11.860Z,16.08
2023-05-15T08:20:39.479Z,15.99
2023-05-15T08:23:07.823Z,16.08
2023-05-15T08:25:34.928Z,16.38
2023-05-15T08:28:02.989Z,16.32
2023-05-15T08:30:30.138Z,16.32
2023-05-15T08:32:57.301Z,16.12
2023-05-15T08:35:24.556Z,16.17
2023-05-15T08:37:51.879Z,16.28
2023-05-15T08:40:23.416Z,16.13
2023-05-15T08:43:04.537Z,16.21
2023-05-15T08:45:32.108Z,16.27
2023-05-15T08:47:59.923Z,15.76
2023-05-15T08:50:27.170Z,16.49
2023-05-15T08:52:58.445Z,15.75
2023-05-15T08:55:26.055Z,16.50
2023-05-15T08:57:55.245Z,16.43
2023-05-15T09:00:22.840Z,16.60
2023-05-15T09:02:50.346Z,16.25
2023-05-15T09:05:17.477Z,16.35
2023-05-15T09:07:45.185Z,16.54
2023-05-15T09:10:14.092Z,16.40
2023-05-15T09:12:45.160Z,16.57
2023-05-15T09:15:18.167Z,16.46
2023-05-15T09:17:46.077Z,16.32
2023-05-15T09:20:36.745Z,16.27
2023-05-15T09:23:06.498Z,16.42
2023-05-15T09:25:38.638Z,16.59
2023-05-15T09:28:31.142Z,16.58
2023-05-15T09:31:03.767Z,16.40
2023-05-15T09:33:38.796Z,16.40
2023-05-15T09:36:07.861Z,16.25
2023-05-15T09:38:43.439Z,16.40
2023-05-15T09:41:10.528Z,16.43
2023-05-15T09:43:38.809Z,16.33
2023-05-15T09:46:06.665Z,16.43
2023-05-15T09:48:34.508Z,16.52
2023-05-15T09:51:01.948Z,16.44
2023-05-15T09:53:29.410Z,16.31
2023-05-15T09:55:56.510Z,16.34
2023-05-15T09:58:23.659Z,16.18
2023-05-15T10:00:50.742Z,16.52
2023-05-15T10:03:19.437Z,16.63
2023-05-15T10:05:46.634Z,16.36
2023-05-15T10:08:15.942Z,16.68
2023-05-15T10:10:44.016Z,16.64
2023-05-15T10:13:12.088Z,16.84
2023-05-15T10:15:40.878Z,16.20
2023-05-15T10:18:08.617Z,16.87
2023-05-15T10:20:36.127Z,16.83
2023-05-15T10:23:06.170Z,16.86
2023-05-15T10:26:02.331Z,16.95
2023-05-15T10:28:29.634Z,16.70
2023-05-15T10:31:00.402Z,16.67
2023-05-15T10:33:28.640Z,16.60
2023-05-15T10:35:57.528Z,16.98
2023-05-15T10:38:26.633Z,17.03
2023-05-15T10:41:05.549Z,17.06
2023-05-15T10:43:45.986Z,16.77
2023-05-15T10:46:14.142Z,16.56
2023-05-15T10:48:41.313Z,17.13
2023-05-15T10:51:18.841Z,17.51
2023-05-15T10:53:46.629Z,17.36
2023-05-15T10:56:18.133Z,17.41
2023-05-15T10:58:48.724Z,17.32
2023-05-15T11:01:32.097Z,17.45
2023-05-15T11:04:12.272Z,17.58
2023-05-15T11:06:47.784Z,17.37
2023-05-15T11:09:34.990Z,17.34
2023-05-15T11:12:04.568Z,16.95
2023-05-15T11:14:37.153Z,17.51
2023-05-15T11:17:06.837Z,17.46
2023-05-15T11:19:58.575Z,17.55
2023-05-15T11:22:32.480Z,17.73
2023-05-15T11:25:05.255Z,17.79
2023-05-15T11:27:46.524Z,17.30
2023-05-15T11:30:22.070Z,17.34
2023-05-15T11:33:10.596Z,17.61
2023-05-15T11:35:48.200Z,17.41
2023-05-15T11:38:22.484Z,17.48
2023-05-15T11:41:03.538Z,17.50
2023-05-15T11:43:32.536Z,17.63
2023-05-15T11:46:09.922Z,17.52
2023-05-15T11:48:47.940Z,17.16
2023-05-15T11:51:22.023Z,16.35
2023-05-15T11:53:55.351Z,15.24
2023-05-15T11:56:30.693Z,16.47
2023-05-15T11:59:00.082Z,16.37
2023-05-15T12:01:29.985Z,16.37
2023-05-15T12:03:57.211Z,16.24
2023-05-15T12:06:24.579Z,16.38
2023-05-15T12:08:54.888Z,16.39
2023-05-15T12:11:22.846Z,16.40
2023-05-15T12:13:54.152Z,16.27
2023-05-15T12:16:26.744Z,15.64
2023-05-15T12:18:54.055Z,16.08
2023-05-15T12:21:21.206Z,15.60
2023-05-15T12:24:06.441Z,15.90
2023-05-15T12:26:34.535Z,16.07
2023-05-15T12:29:01.794Z,16.05
2023-05-15T12:31:28.892Z,15.67
2023-05-15T12:33:56.520Z,15.68
2023-05-15T12:36:23.593Z,15.73
2023-05-15T12:38:50.880Z,15.73
2023-05-15T12:41:20.115Z,15.39
2023-05-15T12:43:47.206Z,15.66
2023-05-15T12:46:15.627Z,15.75
2023-05-15T12:48:42.647Z,15.51
2023-05-15T12:51:10.077Z,15.87
2023-05-15T12:53:40.338Z,15.63
2023-05-15T12:56:08.626Z,15.79
2023-05-15T12:58:36.057Z,15.59
2023-05-15T13:01:03.636Z,15.62
2023-05-15T13:03:32.073Z,15.76
2023-05-15T13:05:59.313Z,15.72
2023-05-15T13:08:26.344Z,15.60
2023-05-15T13:11:02.485Z,15.67
2023-05-15T13:13:43.651Z,15.92
2023-05-15T13:16:27.304Z,15.84
2023-05-15T13:18:56.300Z,15.78
2023-05-15T13:21:23.479Z,15.75
2023-05-15T13:23:51.849Z,15.67
2023-05-15T13:26:18.905Z,15.16
2023-05-15T13:28:46.055Z,15.63
2023-05-15T13:31:13.113Z,15.62
2023-05-15T13:33:40.233Z,15.93
2023-05-15T13:36:07.538Z,15.77
2023-05-15T13:38:34.587Z,15.78
2023-05-15T13:41:02.239Z,15.59
2023-05-15T13:43:29.274Z,15.55
2023-05-15T13:45:56.434Z,16.05
2023-05-15T13:48:23.559Z,16.09
2023-05-15T13:50:51.271Z,16.03
2023-05-15T13:53:18.403Z,16.10
2023-05-15T13:55:46.052Z,16.25
2023-05-15T13:58:13.914Z,16.13
2023-05-15T14:00:42.747Z,16.19
2023-05-15T14:03:11.186Z,15.91
2023-05-15T14:05:39.968Z,16.38
2023-05-15T14:08:10.018Z,16.21
2023-05-15T14:10:41.219Z,16.48
2023-05-15T14:13:08.430Z,16.47
2023-05-15T14:15:35.566Z,16.61
2023-05-15T14:18:02.629Z,16.42
2023-05-15T14:20:29.675Z,16.61
2023-05-15T14:22:56.769Z,16.42
2023-05-15T14:25:24.547Z,16.58
2023-05-15T14:27:51.741Z,16.56
2023-05-15T14:30:19.183Z,16.40
2023-05-15T14:32:46.603Z,16.58
2023-05-15T14:35:13.676Z,16.31
2023-05-15T14:37:40.856Z,15.95
2023-05-15T14:40:09.192Z,16.32
2023-05-15T14:42:36.838Z,16.32
2023-05-15T14:45:05.087Z,16.36
2023-05-15T14:47:32.219Z,16.36
2023-05-15T14:49:59.323Z,16.42
2023-05-15T14:52:26.391Z,15.88
2023-05-15T14:55:04.851Z,16.03
2023-05-15T14:57:35.557Z,16.06
2023-05-15T15:00:02.647Z,16.02
2023-05-15T15:02:29.782Z,16.02
2023-05-15T15:04:58.144Z,16.03
2023-05-15T15:07:29.569Z,16.00
2023-05-15T15:09:56.764Z,15.41
2023-05-15T15:12:23.788Z,15.72
2023-05-15T15:14:50.865Z,15.78
2023-05-15T15:17:18.559Z,15.74
2023-05-15T15:19:45.580Z,15.69
2023-05-15T15:22:14.689Z,15.66
2023-05-15T15:24:41.723Z,15.14
2023-05-15T15:27:08.777Z,15.76
2023-05-15T15:29:35.770Z,15.64
2023-05-15T15:32:04.126Z,15.41
2023-05-15T15:34:31.336Z,15.61
2023-05-15T15:36:58.374Z,15.50
2023-05-15T15:39:25.533Z,15.51
2023-05-15T15:41:52.574Z,15.21
2023-05-15T15:44:19.584Z,15.36
2023-05-15T15:46:46.589Z,15.23
2023-05-15T15:49:14.611Z,15.21
2023-05-15T15:51:41.734Z,15.37
2023-05-15T15:54:08.780Z,15.35
2023-05-15T15:56:36.046Z,15.26
2023-05-15T15:59:03.246Z,14.70
2023-05-15T16:01:30.511Z,15.30
2023-05-15T16:03:57.790Z,15.57
2023-05-15T16:06:24.891Z,15.08
2023-05-15T16:08:51.899Z,15.47
2023-05-15T16:11:18.944Z,15.27
2023-05-15T16:13:45.999Z,15.47
2023-05-15T16:16:13.047Z,15.38
2023-05-15T16:18:40.178Z,15.26
2023-05-15T16:21:07.460Z,15.35
2023-05-15T16:23:35.567Z,15.34
2023-05-15T16:26:04.001Z,15.49
2023-05-15T16:28:31.820Z,15.30
2023-05-15T16:30:59.249Z,15.47
2023-05-15T16:33:26.264Z,15.60
2023-05-15T16:35:53.604Z,15.28
2023-05-15T16:38:20.766Z,15.46
2023-05-15T16:40:49.284Z,15.45
2023-05-15T16:43:16.332Z,15.47
2023-05-15T16:45:44.824Z,15.33
2023-05-15T16:48:11.906Z,15.32
2023-05-15T16:50:38.945Z,15.07
2023-05-15T16:53:06.101Z,15.04
2023-05-15T16:55:33.147Z,15.30
2023-05-15T16:58:00.183Z,15.21
2023-05-15T17:00:27.425Z,15.34
2023-05-15T17:02:55.091Z,15.28
2023-05-15T17:05:22.160Z,15.35
2023-05-15T17:07:49.338Z,14.75
2023-05-15T17:10:16.450Z,15.26
2023-05-15T17:12:43.470Z,14.66
2023-05-15T17:15:11.342Z,15.29
2023-05-15T17:17:38.599Z,14.94
2023-05-15T17:20:06.316Z,15.13
2023-05-15T17:22:33.361Z,14.94
2023-05-15T17:25:00.504Z,15.02
2023-05-15T17:27:27.538Z,15.30
2023-05-15T17:29:54.707Z,15.07
2023-05-15T17:32:22.099Z,15.01
2023-05-15T17:34:51.079Z,15.20
2023-05-15T17:37:18.100Z,14.79
2023-05-15T17:39:45.173Z,15.01
2023-05-15T17:42:12.180Z,14.72
2023-05-15T17:44:39.762Z,15.01
2023-05-15T17:47:07.058Z,15.09
2023-05-15T17:49:34.682Z,14.93
2023-05-15T17:52:01.935Z,14.89
2023-05-15T17:54:29.005Z,14.90
2023-05-15T17:56:56.069Z,14.74
2023-05-15T17:59:23.158Z,14.84
2023-05-15T18:01:53.081Z,14.85
2023-05-15T18:04:20.343Z,14.83
2023-05-15T18:06:47.351Z,14.63
2023-05-15T18:09:14.430Z,14.58
2023-05-15T18:11:41.506Z,14.51
2023-05-15T18:14:09.550Z,14.55
2023-05-15T18:16:37.002Z,14.20
2023-05-15T18:19:04.382Z,14.27
2023-05-15T18:21:31.938Z,14.18
2023-05-15T18:23:59.043Z,14.16
2023-05-15T18:26:26.164Z,13.88
2023-05-15T18:28:54.139Z,14.10
2023-05-15T18:31:21.247Z,12.65
2023-05-15T18:33:48.319Z,14.17
2023-05-15T18:36:15.439Z,14.02
2023-05-15T18:38:45.891Z,14.09
2023-05-15T18:41:13.948Z,14.01
2023-05-15T18:43:41.727Z,11.79
2023-05-15T18:46:09.038Z,13.96
2023-05-15T18:48:36.180Z,12.32
2023-05-15T18:51:04.399Z,13.70
2023-05-15T18:53:31.674Z,13.87
2023-05-15T18:55:58.726Z,13.57
2023-05-15T18:58:25.921Z,13.05
2023-05-15T19:00:53.008Z,13.33
2023-05-15T19:03:20.962Z,13.39
2023-05-15T19:05:48.160Z,13.25
2023-05-15T19:08:15.204Z,13.15
2023-05-15T19:10:47.250Z,13.32
2023-05-15T19:13:14.241Z,13.13
2023-05-15T19:15:41.315Z,13.38
2023-05-15T19:18:08.634Z,13.12
2023-05-15T19:20:35.896Z,13.07
2023-05-15T19:23:03.296Z,12.88
2023-05-15T19:25:30.461Z,12.88
2023-05-15T19:27:57.595Z,12.85
2023-05-15T19:30:24.835Z,12.48
2023-05-15T19:32:52.188Z,12.66
2023-05-15T19:35:19.259Z,12.64
2023-05-15T19:37:46.550Z,12.30
2023-05-15T19:40:13.981Z,12.48
2023-05-15T19:42:41.068Z,12.23
2023-05-15T19:45:08.702Z,12.29
2023-05-15T19:47:35.874Z,11.91
2023-05-15T19:50:03.305Z,11.90
2023-05-15T19:52:30.566Z,11.73
2023-05-15T19:54:57.728Z,11.93
2023-05-15T19:57:24.828Z,11.95
2023-05-15T19:59:51.957Z,11.69
2023-05-15T20:02:19.064Z,11.79
2023-05-15T20:04:46.178Z,11.76
2023-05-15T20:07:13.257Z,11.90
2023-05-15T20:09:40.401Z,11.74
2023-05-15T20:12:07.685Z,11.82
2023-05-15T20:14:35.045Z,11.69
2023-05-15T20:17:02.641Z,11.61
2023-05-15T20:19:31.663Z,11.74
2023-05-15T20:21:58.743Z,11.59
2023-05-15T20:24:26.438Z,11.38
2023-05-15T20:26:54.233Z,11.64
2023-05-15T20:29:21.391Z,11.21
2023-05-15T20:31:48.593Z,11.21
2023-05-15T20:34:16.189Z,11.31
2023-05-15T20:36:43.849Z,11.66
2023-05-15T20:39:11.660Z,11.29
2023-05-15T20:41:38.792Z,10.98
2023-05-15T20:44:05.916Z,11.22
2023-05-15T20:46:33.372Z,11.02
2023-05-15T20:49:00.717Z,11.14
2023-05-15T20:51:27.861Z,11.48
2023-05-15T20:53:57.482Z,11.31
2023-05-15T20:56:25.875Z,11.08
2023-05-15T20:58:53.427Z,11.30
2023-05-15T21:01:20.600Z,11.28
2023-05-15T21:03:47.916Z,11.20
2023-05-15T21:06:15.483Z,11.34
2023-05-15T21:08:43.129Z,11.36
2023-05-15T21:11:10.606Z,11.33
2023-05-15T21:13:37.836Z,11.27
2023-05-15T21:16:05.363Z,11.19
2023-05-15T21:18:32.529Z,11.01
2023-05-15T21:20:59.835Z,10.87
2023-05-15T21:23:26.922Z,11.04
2023-05-15T21:25:54.011Z,11.09
2023-05-15T21:28:21.099Z,11.24
2023-05-15T21:30:48.252Z,10.88
2023-05-15T21:33:15.452Z,10.76
2023-05-15T21:35:42.686Z,10.84
2023-05-15T21:38:12.592Z,10.96
2023-05-15T21:40:42.338Z,10.63
2023-05-15T21:43:10.107Z,11.20
2023-05-15T21:45:37.521Z,11.06
2023-05-15T21:48:04.767Z,11.08
2023-05-15T21:50:31.924Z,11.27
2023-05-15T21:52:59.018Z,11.07
2023-05-15T21:55:26.144Z,11.22
2023-05-15T21:57:53.380Z,11.26
2023-05-15T22:00:21.013Z,11.09
2023-05-15T22:02:48.175Z,11.03
2023-05-15T22:05:16.288Z,11.12
2023-05-15T22:07:44.381Z,10.83
2023-05-15T22:10:16.707Z,10.93
2023-05-15T22:12:44.524Z,11.07
2023-05-15T22:15:12.633Z,11.12
2023-05-15T22:17:39.999Z,10.87
2023-05-15T22:20:11.466Z,10.97
2023-05-15T22:22:39.867Z,10.66
2023-05-15T22:25:07.173Z,11.02
2023-05-15T22:27:34.249Z,10.91
2023-05-15T22:30:01.449Z,10.61
2023-05-15T22:32:28.487Z,10.84
2023-05-15T22:34:55.969Z,10.67
2023-05-15T22:37:23.190Z,11.02
2023-05-15T22:39:50.450Z,10.92
2023-05-15T22:42:18.619Z,10.91
2023-05-15T22:44:46.201Z,10.85
2023-05-15T22:47:13.381Z,10.68
2023-05-15T22:49:40.559Z,10.88
2023-05-15T22:52:07.611Z,10.77
2023-05-15T22:54:34.593Z,10.74
2023-05-15T22:57:01.961Z,10.87
2023-05-15T22:59:28.981Z,10.83
2023-05-15T23:01:56.076Z,10.75
2023-05-15T23:04:23.183Z,10.50
2023-05-15T23:06:50.288Z,10.65
2023-05-15T23:09:17.339Z,10.67
2023-05-15T23:11:44.337Z,10.25
2023-05-15T23:14:12.185Z,10.08
2023-05-15T23:16:39.215Z,10.35
2023-05-15T23:19:06.451Z,10.43
2023-05-15T23:21:33.638Z,10.42
2023-05-15T23:24:00.930Z,10.54
2023-05-15T23:26:28.638Z,10.70
2023-05-15T23:28:55.634Z,10.67
2023-05-15T23:31:22.963Z,10.67
2023-05-15T23:33:50.613Z,10.54
2023-05-15T23:36:17.641Z,10.48
2023-05-15T23:38:50.290Z,10.64
2023-05-15T23:41:22.970Z,10.62
2023-05-15T23:43:50.682Z,10.48
2023-05-15T23:46:18.366Z,10.20
2023-05-15T23:48:45.435Z,10.53
2023-05-15T23:51:12.527Z,10.55
2023-05-15T23:53:39.918Z,10.38
2023-05-15T23:56:07.250Z,10.33
2023-05-15T23:58:34.339Z,10.39
